Time;durP1;ratioP1;P1;durP2;ratioP2;P2;SDS_P1;SDS_P2;PMS_P1;PMS_P2;Temp;Humidity;BMP_temperature;BMP_pressure;BME280_temperature;BME280_humidity;BME280_pressure;Samples;Min_cycle;Max_cycle;Signal;HPM_P1;HPM_P2
2022/03/21 00:02:15;;;;;;;10.80;7.50;;;;;;;4.70;48.37;102457.84;5004805;28;20262;-84
2022/03/21 00:04:41;;;;;;;11.17;7.33;;;;;;;4.68;48.20;102456.13;5017079;28;20663;-84
2022/03/21 00:07:08;;;;;;;10.30;7.77;;;;;;;4.64;48.79;102457.06;5012457;28;20221;-81
2022/03/21 00:09:34;;;;;;;10.90;7.97;;;;;;;4.61;48.90;102457.97;5017211;28;20213;-82
2022/03/21 00:12:02;;;;;;;9.37;7.20;;;;;;;4.57;48.43;102456.22;5022330;28;20239;-80
2022/03/21 00:14:29;;;;;;;11.10;7.83;;;;;;;4.52;48.64;102448.34;5023956;28;20213;-80
2022/03/21 00:16:55;;;;;;;10.07;7.50;;;;;;;4.48;49.31;102451.03;5023457;28;20211;-80
2022/03/21 00:19:23;;;;;;;11.90;8.73;;;;;;;4.43;48.88;102444.94;5021078;28;20393;-80
2022/03/21 00:21:50;;;;;;;12.30;9.13;;;;;;;4.39;49.60;102445.84;5020692;28;20231;-81
2022/03/21 00:24:16;;;;;;;12.50;9.50;;;;;;;4.35;49.77;102445.00;5015690;28;20294;-80
2022/03/21 00:26:43;;;;;;;11.73;8.63;;;;;;;4.33;49.35;102452.06;5003837;28;20207;-81
2022/03/21 00:29:09;;;;;;;13.10;8.77;;;;;;;4.30;50.03;102456.50;5002290;28;20279;-81
2022/03/21 00:31:36;;;;;;;12.27;7.80;;;;;;;4.26;49.89;102450.38;5011042;28;20706;-80
2022/03/21 00:34:03;;;;;;;13.00;8.10;;;;;;;4.25;50.19;102455.66;5004876;28;20246;-80
2022/03/21 00:36:34;;;;;;;13.90;8.53;;;;;;;4.21;50.27;102457.44;5002165;28;20569;-81
2022/03/21 00:39:00;;;;;;;10.27;7.43;;;;;;;4.17;50.34;102455.72;4997799;28;20582;-80
2022/03/21 00:41:28;;;;;;;10.70;8.00;;;;;;;4.13;50.42;102443.44;4998090;28;20235;-80
2022/03/21 00:43:55;;;;;;;11.87;8.27;;;;;;;4.09;50.84;102453.16;4997338;28;20211;-79
2022/03/21 00:46:21;;;;;;;11.53;7.77;;;;;;;4.07;50.70;102449.66;5013504;28;20210;-79
2022/03/21 00:48:48;;;;;;;11.20;8.33;;;;;;;4.04;50.58;102454.94;5016709;28;20598;-80
2022/03/21 00:51:14;;;;;;;12.10;8.47;;;;;;;4.04;51.03;102462.84;5016381;28;20226;-80
2022/03/21 00:53:42;;;;;;;12.10;8.67;;;;;;;3.99;51.14;102459.38;5017125;28;20215;-80
2022/03/21 00:56:09;;;;;;;11.33;7.87;;;;;;;3.91;51.32;102455.06;5017140;28;20578;-79
2022/03/21 00:58:35;;;;;;;14.13;8.10;;;;;;;3.87;51.00;102456.81;5001228;28;20288;-80
2022/03/21 01:01:02;;;;;;;13.03;8.00;;;;;;;3.84;51.69;102464.75;5029426;28;20249;-80
2022/03/21 01:03:28;;;;;;;13.00;8.00;;;;;;;3.81;51.58;102456.84;5003529;28;20216;-80
2022/03/21 01:05:55;;;;;;;13.47;8.37;;;;;;;3.77;51.83;102461.25;5004008;28;20226;-80
2022/03/21 01:08:21;;;;;;;11.47;7.87;;;;;;;3.74;52.36;102473.63;5001478;28;20211;-81
2022/03/21 01:10:49;;;;;;;9.10;7.47;;;;;;;3.72;51.63;102464.84;5005505;28;20712;-80
2022/03/21 01:13:18;;;;;;;10.47;7.83;;;;;;;3.69;51.90;102473.63;5019908;28;20215;-81
2022/03/21 01:15:44;;;;;;;10.13;7.67;;;;;;;3.66;52.53;102472.78;5000266;28;20237;-81
2022/03/21 01:18:11;;;;;;;10.63;8.37;;;;;;;3.62;52.93;102466.63;5002218;28;20306;-80
2022/03/21 01:20:38;;;;;;;11.87;8.83;;;;;;;3.60;52.26;102462.25;5002402;28;20313;-81
2022/03/21 01:23:04;;;;;;;12.23;9.00;;;;;;;3.57;53.21;102480.75;5019232;28;20205;-80
2022/03/21 01:25:31;;;;;;;10.63;7.97;;;;;;;3.54;52.31;102460.56;5006329;28;20225;-80
2022/03/21 01:27:59;;;;;;;11.40;8.43;;;;;;;3.51;52.51;102459.69;5008954;28;20209;-80
2022/03/21 01:30:25;;;;;;;11.77;8.73;;;;;;;3.48;53.30;102464.09;5012876;28;20570;-80
2022/03/21 01:32:52;;;;;;;10.67;7.77;;;;;;;3.42;53.00;102453.56;5031925;28;20199;-80
2022/03/21 01:35:19;;;;;;;10.17;7.23;;;;;;;3.39;53.50;102456.25;5012802;28;20214;-80
2022/03/21 01:37:46;;;;;;;10.63;7.60;;;;;;;3.33;53.38;102458.91;5023580;28;20207;-81
2022/03/21 01:40:14;;;;;;;10.17;7.77;;;;;;;3.27;53.26;102461.53;5018569;28;20225;-80
2022/03/21 01:42:43;;;;;;;10.33;7.90;;;;;;;3.22;53.72;102463.34;5006818;28;20244;-79
2022/03/21 01:45:12;;;;;;;12.93;7.33;;;;;;;3.18;53.68;102461.59;5001888;28;20250;-80
2022/03/21 01:47:38;;;;;;;11.60;8.83;;;;;;;3.15;54.23;102464.25;5012392;28;20195;-80
2022/03/21 01:50:06;;;;;;;12.97;8.17;;;;;;;3.11;54.43;102462.50;5017926;28;20387;-79
2022/03/21 01:52:36;;;;;;;11.53;7.87;;;;;;;3.07;54.18;102466.00;5015392;28;20219;-80
2022/03/21 01:57:50;;;;;;;10.23;8.07;;;;;;;3.01;55.12;102477.47;5001279;28;20302;-80
2022/03/21 02:00:18;;;;;;;11.10;8.33;;;;;;;2.97;55.34;102464.31;5017462;28;20198;-80
2022/03/21 02:02:44;;;;;;;11.20;8.03;;;;;;;2.93;55.70;102460.81;5019230;28;20215;-80
2022/03/21 02:05:11;;;;;;;10.53;7.83;;;;;;;2.91;55.83;102466.94;5018386;28;20473;-80
2022/03/21 02:07:38;;;;;;;11.27;8.03;;;;;;;2.87;55.21;102463.44;5017270;28;20217;-82
2022/03/21 02:10:07;;;;;;;11.13;8.33;;;;;;;2.79;55.71;102468.75;5017724;28;20222;-82
2022/03/21 02:12:34;;;;;;;11.43;8.20;;;;;;;2.66;55.68;102464.38;5002350;28;20249;-80
2022/03/21 02:15:01;;;;;;;10.63;8.13;;;;;;;2.53;56.26;102467.88;5005872;28;20254;-80
2022/03/21 02:17:31;;;;;;;11.90;7.90;;;;;;;2.45;56.30;102464.41;5014545;28;20809;-80
2022/03/21 02:20:01;;;;;;;11.57;7.80;;;;;;;2.39;56.63;102453.88;5008087;28;20200;-80
2022/03/21 02:22:33;;;;;;;19.03;11.40;;;;;;;2.35;57.01;102455.63;5011133;28;20325;-79
2022/03/21 02:25:06;;;;;;;17.83;11.17;;;;;;;2.32;57.74;102457.41;4997886;28;20599;-80
2022/03/21 02:27:35;;;;;;;13.67;8.87;;;;;;;2.29;57.51;102449.53;5012381;28;20205;-80
2022/03/21 02:30:03;;;;;;;12.13;9.23;;;;;;;2.26;57.71;102444.25;4999915;28;20216;-80
2022/03/21 02:32:30;;;;;;;14.40;8.70;;;;;;;2.25;58.39;102455.66;5007574;28;20231;-80
2022/03/21 02:34:59;;;;;;;11.70;8.67;;;;;;;2.22;58.63;102456.53;5014050;28;20207;-79
2022/03/21 02:37:26;;;;;;;12.83;9.07;;;;;;;2.20;58.42;102453.03;5006080;28;20215;-79
2022/03/21 02:39:55;;;;;;;12.00;9.03;;;;;;;2.20;58.18;102452.16;5012251;28;20219;-80
2022/03/21 02:42:22;;;;;;;12.50;8.57;;;;;;;2.19;58.21;102453.03;5009941;28;20253;-80
2022/03/21 02:44:50;;;;;;;14.33;9.20;;;;;;;2.20;58.39;102457.41;5016718;28;20211;-80
2022/03/21 02:47:16;;;;;;;15.67;8.67;;;;;;;2.19;58.29;102448.63;5022078;28;20718;-79
2022/03/21 02:49:43;;;;;;;14.03;8.87;;;;;;;2.20;58.18;102452.16;5015578;28;20200;-80
2022/03/21 02:52:11;;;;;;;12.03;7.87;;;;;;;2.19;58.76;102446.00;5017665;28;20230;-80
2022/03/21 02:54:38;;;;;;;11.23;8.50;;;;;;;2.20;58.64;102446.88;5010145;28;20183;-80
2022/03/21 02:57:05;;;;;;;13.47;8.60;;;;;;;2.20;58.41;102445.13;5010002;28;20206;-80
2022/03/21 02:59:31;;;;;;;13.03;9.10;;;;;;;2.21;58.74;102453.91;5002446;28;20263;-80
2022/03/21 03:01:59;;;;;;;13.27;9.03;;;;;;;2.21;59.03;102454.78;5008960;28;20246;-80
2022/03/21 03:04:26;;;;;;;14.40;9.33;;;;;;;2.20;58.83;102458.28;4979208;28;1048057;-80
2022/03/21 03:06:54;;;;;;;13.03;8.97;;;;;;;2.13;58.23;102456.53;4998050;28;20203;-80
2022/03/21 03:09:20;;;;;;;12.97;8.80;;;;;;;2.04;57.89;102456.53;5017822;28;20295;-81
2022/03/21 03:11:47;;;;;;;12.27;9.20;;;;;;;1.94;58.82;102450.41;5033929;28;20264;-80
2022/03/21 03:14:13;;;;;;;15.77;9.23;;;;;;;1.91;59.08;102454.78;5019807;28;20211;-80
2022/03/21 03:16:40;;;;;;;12.77;9.23;;;;;;;1.89;59.02;102446.00;5005933;28;20229;-80
2022/03/21 03:19:08;;;;;;;13.60;9.60;;;;;;;1.88;59.25;102454.75;5020614;28;20684;-79
2022/03/21 03:21:37;;;;;;;12.43;9.23;;;;;;;1.88;59.95;102454.75;5020385;28;20249;-80
2022/03/21 03:24:04;;;;;;;12.77;8.87;;;;;;;1.86;60.18;102460.00;5013289;28;20218;-80
2022/03/21 03:26:31;;;;;;;15.87;9.97;;;;;;;1.87;59.34;102464.41;5017426;28;20286;-80
2022/03/21 03:28:57;;;;;;;12.47;9.47;;;;;;;1.88;59.91;102460.91;5018165;28;20210;-80
2022/03/21 03:31:24;;;;;;;15.07;9.97;;;;;;;1.88;59.58;102460.91;5018204;28;20230;-80
2022/03/21 03:33:51;;;;;;;15.47;9.57;;;;;;;1.88;60.14;102460.00;5015467;28;20209;-79
2022/03/21 03:36:19;;;;;;;14.90;10.17;;;;;;;1.85;60.44;102465.25;5015107;28;20207;-79
2022/03/21 03:38:47;;;;;;;13.33;9.13;;;;;;;1.82;60.59;102468.75;5008426;28;20217;-80
2022/03/21 03:41:15;;;;;;;14.23;9.33;;;;;;;1.78;60.47;102460.88;5015422;28;20245;-81
2022/03/21 03:43:43;;;;;;;14.73;8.90;;;;;;;1.75;60.45;102459.13;5017056;28;20214;-80
2022/03/21 03:46:10;;;;;;;13.50;10.13;;;;;;;1.72;60.58;102464.38;5009774;28;20241;-80
2022/03/21 03:48:36;;;;;;;14.33;10.07;;;;;;;1.71;61.00;102467.88;5019031;28;20764;-80
2022/03/21 03:51:03;;;;;;;14.83;10.10;;;;;;;1.69;60.59;102467.88;5007624;28;20236;-79
2022/03/21 03:53:31;;;;;;;13.47;10.13;;;;;;;1.67;60.88;102464.34;5003801;28;20219;-80
2022/03/21 03:55:58;;;;;;;14.43;9.63;;;;;;;1.62;60.81;102470.47;5021904;28;20318;-80
2022/03/21 03:58:24;;;;;;;14.40;9.90;;;;;;;1.58;60.95;102477.47;5020618;28;20210;-79
2022/03/21 04:00:51;;;;;;;15.10;10.40;;;;;;;1.55;61.19;102476.59;5020049;28;20241;-80
2022/03/21 04:06:02;;;;;;;14.40;9.53;;;;;;;1.51;61.58;102477.44;5008576;28;20254;-79
2022/03/21 04:08:29;;;;;;;14.40;9.23;;;;;;;1.50;61.89;102480.94;5021945;28;20281;-79
2022/03/21 04:10:57;;;;;;;14.07;9.93;;;;;;;1.50;62.16;102478.31;5009650;28;20326;-79
2022/03/21 04:13:23;;;;;;;13.07;9.47;;;;;;;1.48;62.14;102480.94;5022930;28;20210;-78
2022/03/21 04:15:50;;;;;;;15.37;10.00;;;;;;;1.46;62.08;102480.03;5011469;28;20638;-79
2022/03/21 04:18:16;;;;;;;16.10;11.03;;;;;;;1.46;62.26;102477.41;5015274;28;20673;-80
2022/03/21 04:20:43;;;;;;;15.20;10.30;;;;;;;1.45;62.34;102480.03;5013606;28;20231;-79
2022/03/21 04:23:11;;;;;;;14.10;9.53;;;;;;;1.44;62.58;102475.66;5014072;28;20231;-79
2022/03/21 04:25:38;;;;;;;13.33;10.37;;;;;;;1.43;62.52;102476.56;5021964;28;20294;-79
2022/03/21 04:28:09;;;;;;;13.53;10.83;;;;;;;1.41;62.46;102478.31;5013220;28;20221;-79
2022/03/21 04:30:36;;;;;;;15.90;9.93;;;;;;;1.38;62.27;102481.78;5007946;28;20637;-80
2022/03/21 04:33:03;;;;;;;12.27;9.43;;;;;;;1.34;62.15;102480.88;5008272;28;20226;-79
2022/03/21 04:35:30;;;;;;;16.17;11.03;;;;;;;1.27;62.59;102480.84;5016732;28;20217;-80
2022/03/21 04:37:56;;;;;;;15.97;9.90;;;;;;;1.17;62.42;102485.19;5016410;28;20203;-80
2022/03/21 04:40:24;;;;;;;13.90;9.33;;;;;;;1.11;62.57;102490.41;5015551;28;20237;-79
2022/03/21 04:42:50;;;;;;;15.37;10.27;;;;;;;1.07;62.78;102493.03;5009692;28;20228;-79
2022/03/21 04:45:18;;;;;;;13.83;10.23;;;;;;;1.05;63.23;102500.88;5000000;28;20214;-79
2022/03/21 04:47:45;;;;;;;14.03;10.10;;;;;;;1.02;63.42;102491.25;5012787;28;20221;-80
2022/03/21 04:50:12;;;;;;;15.90;10.07;;;;;;;1.00;63.62;102493.00;5011522;28;20200;-79
2022/03/21 04:52:39;;;;;;;12.57;9.13;;;;;;;0.99;63.61;102496.47;5027143;28;20254;-79
2022/03/21 04:55:07;;;;;;;15.33;10.43;;;;;;;0.97;63.87;102497.34;4999524;28;20214;-78
2022/03/21 04:57:34;;;;;;;15.93;10.53;;;;;;;0.97;63.69;102502.56;5016779;28;20196;-78
2022/03/21 05:00:01;;;;;;;13.30;10.30;;;;;;;0.96;64.09;102503.44;5017467;28;20305;-79
2022/03/21 05:02:29;;;;;;;16.67;10.97;;;;;;;0.95;64.14;102504.31;5017799;28;20227;-79
2022/03/21 05:04:55;;;;;;;15.57;10.33;;;;;;;0.95;64.36;102509.56;5012182;28;20212;-78
2022/03/21 05:07:22;;;;;;;15.53;10.03;;;;;;;0.94;64.41;102519.19;5021539;28;20233;-79
2022/03/21 05:09:48;;;;;;;13.63;10.17;;;;;;;0.93;64.33;102509.53;5018681;28;20230;-80
2022/03/21 05:12:15;;;;;;;19.13;11.27;;;;;;;0.92;64.26;102515.66;5017226;28;20215;-79
2022/03/21 05:14:42;;;;;;;13.73;10.07;;;;;;;0.90;64.58;102511.28;5025914;28;20202;-79
2022/03/21 05:17:10;;;;;;;14.50;10.07;;;;;;;0.87;64.59;102519.16;5023885;28;20829;-78
2022/03/21 05:19:39;;;;;;;14.83;9.67;;;;;;;0.85;64.66;102516.50;5016776;28;20222;-79
2022/03/21 05:22:06;;;;;;;14.10;9.87;;;;;;;0.81;64.77;102519.97;5016182;28;20269;-81
2022/03/21 05:32:46;;;;;;;14.07;9.60;;;;;;;0.77;65.22;102526.06;5004662;28;20214;-80
2022/03/21 05:38:13;;;;;;;15.17;10.23;;;;;;;0.78;65.75;102526.94;4966452;28;20236;-80
2022/03/21 05:40:41;;;;;;;14.80;9.60;;;;;;;0.78;65.82;102522.56;4961711;28;20726;-80
2022/03/21 05:43:07;;;;;;;14.10;9.70;;;;;;;0.77;65.62;102523.44;4989056;28;20693;-79
2022/03/21 05:45:34;;;;;;;22.30;11.00;;;;;;;0.76;65.97;102528.66;5016097;28;20214;-79
2022/03/21 05:50:46;;;;;;;15.53;9.47;;;;;;;0.71;66.13;102535.66;5008226;28;20254;-79
2022/03/21 05:53:13;;;;;;;18.67;10.63;;;;;;;0.69;66.51;102531.28;5002949;28;20275;-80
2022/03/21 05:55:39;;;;;;;62.20;26.00;;;;;;;0.71;66.63;102530.41;5009302;28;20627;-79
2022/03/21 05:58:06;;;;;;;106.67;41.87;;;;;;;0.73;66.74;102533.88;5018705;28;20203;-80
2022/03/21 06:00:34;;;;;;;58.07;27.10;;;;;;;0.75;66.74;102532.16;5022717;28;20217;-79
2022/03/21 06:03:02;;;;;;;31.77;17.13;;;;;;;0.79;66.80;102537.44;5019838;28;20262;-80
2022/03/21 06:05:29;;;;;;;28.57;16.57;;;;;;;0.83;67.18;102535.72;5007410;28;20722;-79
2022/03/21 06:07:57;;;;;;;25.10;13.83;;;;;;;0.87;67.28;102534.88;5004242;28;20195;-80
2022/03/21 06:10:23;;;;;;;25.90;13.13;;;;;;;0.90;67.34;102543.63;5010688;28;20230;-79
2022/03/21 06:12:50;;;;;;;16.07;11.53;;;;;;;0.94;67.61;102534.91;5009432;28;20227;-80
2022/03/21 06:15:17;;;;;;;17.83;11.50;;;;;;;0.99;67.33;102542.81;5007074;28;20199;-80
2022/03/21 06:17:44;;;;;;;16.40;10.23;;;;;;;1.02;67.30;102540.22;5009664;28;20228;-79
2022/03/21 06:20:12;;;;;;;14.20;10.27;;;;;;;1.06;67.09;102539.38;5006259;28;20207;-78
2022/03/21 06:22:42;;;;;;;17.03;10.40;;;;;;;1.11;67.11;102540.25;5001555;28;20242;-78
2022/03/21 06:25:11;;;;;;;22.17;10.43;;;;;;;1.16;66.92;102548.16;5017160;28;20206;-79
2022/03/21 06:27:39;;;;;;;17.83;11.03;;;;;;;1.19;67.19;102548.19;5008639;28;20299;-79
2022/03/21 06:30:08;;;;;;;13.77;10.07;;;;;;;1.24;66.81;102549.97;5014785;28;20662;-79
2022/03/21 06:32:34;;;;;;;13.80;10.20;;;;;;;1.28;66.65;102554.34;5011616;28;20230;-79
2022/03/21 06:35:01;;;;;;;14.10;9.27;;;;;;;1.33;67.25;102557.88;5014238;28;20203;-79
2022/03/21 06:37:28;;;;;;;15.97;11.20;;;;;;;1.37;66.86;102559.66;5013303;28;20270;-80
2022/03/21 06:39:54;;;;;;;14.80;10.00;;;;;;;1.41;66.76;102562.31;5012555;28;20582;-79
2022/03/21 06:42:22;;;;;;;15.77;10.90;;;;;;;1.46;66.93;102569.31;5008929;28;20238;-79
2022/03/21 06:44:50;;;;;;;13.63;9.43;;;;;;;1.51;66.77;102564.09;5012498;28;20210;-80
2022/03/21 06:47:18;;;;;;;13.97;10.83;;;;;;;1.56;67.13;102568.50;5017493;28;20206;-79
2022/03/21 06:49:44;;;;;;;15.93;10.63;;;;;;;1.62;67.05;102563.25;5014001;28;20569;-79
2022/03/21 06:52:11;;;;;;;15.87;11.37;;;;;;;1.68;67.24;102568.53;5007989;28;20227;-79
2022/03/21 06:54:38;;;;;;;14.97;11.23;;;;;;;1.73;67.04;102572.06;5007484;28;20465;-80
2022/03/21 06:57:05;;;;;;;14.87;11.23;;;;;;;1.81;66.92;102571.22;5004898;28;20210;-80
2022/03/21 06:59:34;;;;;;;16.87;11.33;;;;;;;1.87;66.69;102580.00;5008016;28;20207;-79
2022/03/21 07:02:01;;;;;;;15.60;11.67;;;;;;;1.95;66.59;102572.16;5015004;28;20224;-79
2022/03/21 07:04:28;;;;;;;14.70;11.37;;;;;;;2.02;66.17;102572.16;5010833;28;20331;-81
2022/03/21 07:06:54;;;;;;;17.77;12.03;;;;;;;2.11;66.03;102575.69;5014723;28;20209;-80
2022/03/21 07:09:25;;;;;;;18.57;12.60;;;;;;;2.18;65.58;102574.81;5005905;28;20207;-80
2022/03/21 07:11:52;;;;;;;18.00;12.00;;;;;;;2.26;65.98;102576.59;5010555;28;20245;-79
2022/03/21 07:14:18;;;;;;;16.90;11.87;;;;;;;2.35;66.11;102580.97;5009156;28;20574;-80
2022/03/21 07:16:46;;;;;;;16.57;11.40;;;;;;;2.44;65.73;102571.34;5008617;28;20227;-80
2022/03/21 07:19:13;;;;;;;17.00;11.97;;;;;;;2.56;66.00;102578.38;5014482;28;20210;-79
2022/03/21 07:21:40;;;;;;;17.33;12.07;;;;;;;2.66;66.38;102580.13;5013925;28;20262;-80
2022/03/21 07:24:07;;;;;;;15.90;11.63;;;;;;;2.76;65.76;102581.00;5011933;28;20234;-80
2022/03/21 07:26:34;;;;;;;14.33;11.03;;;;;;;2.86;65.63;102582.75;5012131;28;20226;-79
2022/03/21 07:29:01;;;;;;;15.83;11.03;;;;;;;2.96;65.58;102589.75;5012096;28;20212;-81
2022/03/21 07:31:28;;;;;;;16.77;12.03;;;;;;;3.09;65.69;102593.25;5012715;28;20319;-80
2022/03/21 07:33:56;;;;;;;17.97;12.00;;;;;;;3.22;64.92;102600.25;5013842;28;20203;-80
2022/03/21 07:36:23;;;;;;;15.53;11.27;;;;;;;3.37;64.77;102596.72;5015962;28;20230;-80
2022/03/21 07:38:49;;;;;;;15.77;11.07;;;;;;;3.49;64.53;102599.31;5020743;28;20210;-80
2022/03/21 07:41:16;;;;;;;16.07;12.00;;;;;;;3.62;64.23;102600.13;5017550;28;20233;-81
2022/03/21 07:43:42;;;;;;;15.83;11.07;;;;;;;3.76;63.41;102600.97;5021507;28;20237;-80
2022/03/21 07:48:53;;;;;;;14.37;10.97;;;;;;;4.05;62.50;102593.78;5013794;28;20826;-81
2022/03/21 07:51:21;;;;;;;14.20;10.80;;;;;;;4.18;62.13;102584.91;5019637;28;20229;-81
2022/03/21 07:53:47;;;;;;;17.27;11.67;;;;;;;4.32;61.80;102587.47;5026545;28;20202;-82
2022/03/21 07:56:14;;;;;;;17.73;12.30;;;;;;;4.49;62.10;102584.69;5024245;28;20207;-81
2022/03/21 07:58:41;;;;;;;18.03;12.07;;;;;;;4.65;60.97;102582.84;5023648;28;20214;-82
2022/03/21 08:01:07;;;;;;;14.13;10.60;;;;;;;4.82;60.48;102592.38;5006724;28;20701;-82
2022/03/21 08:03:34;;;;;;;17.50;11.63;;;;;;;4.95;59.35;102592.25;5018896;28;20229;-81
2022/03/21 08:06:02;;;;;;;15.63;11.70;;;;;;;5.09;59.34;102593.00;5012644;28;20233;-82
2022/03/21 08:08:30;;;;;;;15.80;11.00;;;;;;;5.28;59.02;102586.63;5010844;28;20217;-82
2022/03/21 08:10:58;;;;;;;15.50;11.83;;;;;;;5.46;58.70;102588.22;5014145;28;20293;-81
2022/03/21 08:13:25;;;;;;;14.67;11.30;;;;;;;5.65;58.38;102595.03;5019926;28;20210;-81
2022/03/21 08:15:52;;;;;;;17.00;11.43;;;;;;;5.77;57.15;102583.41;5000729;28;20642;-81
2022/03/21 08:18:18;;;;;;;15.57;11.23;;;;;;;5.87;56.38;102585.94;5003971;28;20655;-80
2022/03/21 08:20:45;;;;;;;15.57;11.00;;;;;;;6.02;55.75;102589.31;5016452;28;20226;-80
2022/03/21 08:23:13;;;;;;;17.03;12.07;;;;;;;6.15;55.57;102582.94;5007152;28;20284;-81
2022/03/21 08:25:43;;;;;;;15.43;12.13;;;;;;;6.31;55.33;102586.22;5006229;28;20302;-80
2022/03/21 08:28:11;;;;;;;15.47;11.60;;;;;;;6.49;55.08;102585.94;5004617;28;20206;-80
2022/03/21 08:30:39;;;;;;;18.03;11.50;;;;;;;6.68;54.99;102592.72;5005450;28;20211;-80
2022/03/21 08:33:07;;;;;;;16.90;11.50;;;;;;;6.84;54.17;102591.53;5009514;28;20211;-81
2022/03/21 08:35:35;;;;;;;20.80;12.50;;;;;;;7.03;53.52;102596.53;5015305;28;20199;-81
2022/03/21 08:38:01;;;;;;;15.13;12.43;;;;;;;7.23;54.07;102591.75;5020737;28;20230;-81
2022/03/21 08:40:28;;;;;;;15.27;11.77;;;;;;;7.39;52.84;102592.31;5007342;28;20690;-81
2022/03/21 08:42:56;;;;;;;15.30;11.57;;;;;;;7.51;51.54;102589.47;5009941;28;20222;-81
2022/03/21 08:45:23;;;;;;;14.47;11.63;;;;;;;7.66;51.67;102591.81;5005437;28;20200;-80
2022/03/21 08:47:51;;;;;;;15.43;11.20;;;;;;;7.80;50.99;102583.56;5011908;28;20207;-80
2022/03/21 08:50:18;;;;;;;16.53;11.30;;;;;;;7.94;51.23;102586.78;5007459;28;20270;-80
2022/03/21 08:52:44;;;;;;;15.27;11.90;;;;;;;8.09;51.08;102588.22;5009787;28;20223;-80
2022/03/21 08:55:11;;;;;;;15.73;11.77;;;;;;;8.25;50.28;102581.66;5007858;28;20199;-80
2022/03/21 08:57:38;;;;;;;15.03;12.53;;;;;;;8.36;49.60;102571.72;5005343;28;20213;-80
2022/03/21 09:00:08;;;;;;;14.50;11.03;;;;;;;8.50;49.17;102574.03;5000975;28;20216;-80
2022/03/21 09:02:35;;;;;;;18.97;12.33;;;;;;;8.64;48.69;102575.44;5001904;28;20667;-81
2022/03/21 09:05:04;;;;;;;15.20;11.87;;;;;;;8.76;48.12;102573.41;5008000;28;20211;-80
2022/03/21 09:07:30;;;;;;;13.77;11.70;;;;;;;8.85;47.49;102571.38;5004525;28;20672;-80
2022/03/21 09:09:57;;;;;;;16.10;12.37;;;;;;;8.93;47.79;102576.50;5008155;28;20212;-81
2022/03/21 09:12:24;;;;;;;14.30;11.67;;;;;;;9.03;47.66;102584.19;5005191;28;20227;-81
2022/03/21 09:14:50;;;;;;;13.40;11.30;;;;;;;9.17;47.79;102580.28;5005668;28;20218;-80
2022/03/21 09:17:18;;;;;;;15.63;11.87;;;;;;;9.30;47.52;102574.63;5006227;28;20207;-81
2022/03/21 09:19:45;;;;;;;13.23;11.13;;;;;;;9.41;46.65;102576.97;5005527;28;20330;-81
2022/03/21 09:22:12;;;;;;;14.03;11.67;;;;;;;9.51;46.71;102572.25;5012326;28;20227;-80
2022/03/21 09:24:38;;;;;;;14.93;11.00;;;;;;;9.61;45.86;102576.41;5003445;28;20257;-80
2022/03/21 09:27:05;;;;;;;13.40;11.37;;;;;;;9.67;45.30;102570.91;5002956;28;20215;-80
2022/03/21 09:29:32;;;;;;;15.60;12.70;;;;;;;9.78;45.53;102570.59;5004105;28;20206;-80
2022/03/21 09:31:59;;;;;;;15.00;12.27;;;;;;;9.87;45.06;102572.97;5003219;28;20211;-80
2022/03/21 09:34:28;;;;;;;15.93;11.80;;;;;;;9.94;45.33;102570.09;5010731;28;20203;-80
2022/03/21 09:36:55;;;;;;;14.63;12.20;;;;;;;10.03;44.84;102568.94;5008164;28;20681;-80
2022/03/21 09:39:21;;;;;;;15.10;12.40;;;;;;;10.12;44.72;102568.66;5005772;28;20207;-80
2022/03/21 09:41:48;;;;;;;12.67;11.33;;;;;;;10.22;44.97;102570.13;5003104;28;20229;-81
2022/03/21 09:44:15;;;;;;;16.80;12.40;;;;;;;10.36;44.64;102565.25;5003917;28;20259;-81
2022/03/21 09:46:43;;;;;;;14.43;12.90;;;;;;;10.48;44.47;102563.97;5004747;28;20214;-80
2022/03/21 09:49:11;;;;;;;13.87;11.73;;;;;;;10.61;43.96;102561.78;5004306;28;20225;-80
2022/03/21 09:51:40;;;;;;;14.30;11.57;;;;;;;10.73;43.50;102556.94;5010151;28;20227;-81
2022/03/21 09:54:07;;;;;;;16.87;12.40;;;;;;;10.86;43.21;102556.50;5005002;28;20200;-81
2022/03/21 09:56:33;;;;;;;12.83;11.10;;;;;;;10.97;42.91;102560.53;5008866;28;20821;-80
2022/03/21 09:59:00;;;;;;;15.37;12.20;;;;;;;11.09;42.28;102561.91;5005067;28;20203;-80
2022/03/21 10:01:27;;;;;;;16.23;11.57;;;;;;;11.21;41.20;102549.94;5004124;28;20229;-81
2022/03/21 10:03:53;;;;;;;13.90;11.20;;;;;;;11.30;40.22;102562.94;5002889;28;20231;-81
2022/03/21 10:06:27;;;;;;;14.70;11.63;;;;;;;11.39;40.35;102557.28;5007638;28;20951;-81
2022/03/21 10:09:06;;;;;;;13.60;12.03;;;;;;;11.48;40.28;102556.91;5004210;28;20211;-80
2022/03/21 10:11:34;;;;;;;14.90;12.27;;;;;;;11.56;40.57;102549.53;5005002;28;20296;-81
2022/03/21 10:14:21;;;;;;;15.77;11.67;;;;;;;11.67;40.44;102551.78;5007766;28;20212;-80
2022/03/21 10:16:51;;;;;;;13.67;11.47;;;;;;;11.74;40.54;102562.19;5003727;28;20207;-80
2022/03/21 10:19:18;;;;;;;15.73;11.43;;;;;;;11.85;40.88;102544.91;5008419;28;20235;-80
2022/03/21 10:22:00;;;;;;;13.73;11.30;;;;;;;11.92;40.70;102535.72;5005341;28;21025;-80
2022/03/21 10:24:34;;;;;;;15.50;12.10;;;;;;;11.98;40.58;102548.84;5013523;28;20208;-79
2022/03/21 10:27:01;;;;;;;16.43;12.33;;;;;;;12.07;40.76;102546.69;5007079;28;20213;-80
2022/03/21 10:29:28;;;;;;;16.30;12.83;;;;;;;12.15;40.31;102547.25;5006387;28;20204;-80
2022/03/21 10:31:54;;;;;;;14.80;12.70;;;;;;;12.23;40.60;102546.94;5010579;28;20743;-80
2022/03/21 10:34:23;;;;;;;14.77;12.13;;;;;;;12.30;39.92;102542.22;5013088;28;20231;-80
2022/03/21 10:36:59;;;;;;;14.93;12.57;;;;;;;12.34;40.10;102534.03;5011854;28;20230;-80
2022/03/21 10:39:27;;;;;;;16.13;12.57;;;;;;;12.41;40.42;102529.28;5009708;28;20203;-80
2022/03/21 10:41:58;;;;;;;14.77;12.63;;;;;;;12.47;40.38;102537.94;5013384;28;20242;-80
2022/03/21 10:44:25;;;;;;;14.07;12.57;;;;;;;12.51;40.09;102539.56;5007214;28;20225;-79
2022/03/21 10:46:53;;;;;;;13.60;12.20;;;;;;;12.52;39.91;102535.94;5013413;28;20221;-81
2022/03/21 10:49:29;;;;;;;18.13;13.77;;;;;;;12.51;39.47;102534.22;5013475;28;20586;-80
2022/03/21 10:51:55;;;;;;;14.17;12.67;;;;;;;12.54;39.63;102535.03;5010586;28;20232;-79
2022/03/21 10:54:41;;;;;;;15.27;12.53;;;;;;;12.54;39.39;102530.50;5010077;28;20202;-78
2022/03/21 10:57:28;;;;;;;16.63;12.67;;;;;;;12.58;39.57;102534.81;5008584;28;20213;-79
2022/03/21 11:00:13;;;;;;;20.60;13.27;;;;;;;12.62;39.76;102531.06;5009040;28;20198;-79
2022/03/21 11:02:51;;;;;;;16.90;12.27;;;;;;;12.64;39.70;102523.88;5006561;28;20258;-79
2022/03/21 11:05:19;;;;;;;13.90;12.43;;;;;;;12.66;39.56;102526.47;5006566;28;20228;-79
2022/03/21 11:07:47;;;;;;;16.83;13.57;;;;;;;12.66;39.40;102522.00;5008708;28;20327;-79
2022/03/21 11:10:14;;;;;;;15.30;13.20;;;;;;;12.68;39.42;102516.59;5003241;28;20747;-78
2022/03/21 11:12:43;;;;;;;15.23;13.13;;;;;;;12.68;39.32;102512.13;5007262;28;20233;-79
2022/03/21 11:15:11;;;;;;;17.07;12.97;;;;;;;12.73;39.49;102514.56;5011822;28;20535;-79
2022/03/21 11:17:37;;;;;;;15.37;13.00;;;;;;;12.82;40.12;102520.41;5009359;28;20212;-79
2022/03/21 11:20:06;;;;;;;21.00;14.27;;;;;;;12.89;39.92;102518.34;5010536;28;20242;-79
2022/03/21 11:22:34;;;;;;;18.67;13.83;;;;;;;12.90;39.66;102517.38;5005097;28;20254;-80
2022/03/21 11:25:02;;;;;;;15.80;13.83;;;;;;;12.91;39.11;102513.78;5007081;28;20249;-79
2022/03/21 11:27:52;;;;;;;15.17;12.80;;;;;;;12.92;39.39;102510.16;5005617;28;20215;-79
2022/03/21 11:30:27;;;;;;;15.83;14.10;;;;;;;12.99;40.21;102500.06;5012692;28;20214;-79
2022/03/21 11:33:03;;;;;;;18.43;13.20;;;;;;;13.07;39.76;102498.81;5015137;28;20203;-79
2022/03/21 11:35:32;;;;;;;17.57;14.00;;;;;;;13.13;39.76;102501.19;5006617;28;20263;-80
2022/03/21 11:38:24;;;;;;;17.00;15.13;;;;;;;13.18;39.63;102493.00;5017716;28;20677;-80
2022/03/21 11:40:51;;;;;;;16.87;14.77;;;;;;;13.19;39.07;102486.72;5014495;28;20289;-79
2022/03/21 11:43:30;;;;;;;19.63;15.27;;;;;;;13.17;39.21;102494.81;5010065;28;20203;-79
2022/03/21 11:45:58;;;;;;;19.57;14.17;;;;;;;13.13;38.70;102493.19;5015099;28;20207;-79